sensor_id;sensor_type;location;lat;lon;timestamp;P1;durP1;ratioP1;P2;durP2;ratioP2
80179;SDS011;69505;52.134;5.438;2023-07-13T00:02:18;8.52;;;1.30;;
80179;SDS011;69505;52.134;5.438;2023-07-13T00:04:45;7.10;;;1.42;;
80179;SDS011;69505;52.134;5.438;2023-07-13T00:07:12;5.47;;;1.23;;
80179;SDS011;69505;52.134;5.438;2023-07-13T00:09:40;11.05;;;1.40;;
80179;SDS011;69505;52.134;5.438;2023-07-13T00:12:21;8.48;;;1.50;;
80179;SDS011;69505;52.134;5.438;2023-07-13T00:14:49;8.32;;;1.23;;
80179;SDS011;69505;52.134;5.438;2023-07-13T00:17:16;6.25;;;1.67;;
80179;SDS011;69505;52.134;5.438;2023-07-13T00:19:43;6.82;;;1.13;;
80179;SDS011;69505;52.134;5.438;2023-07-13T00:22:09;6.13;;;1.10;;
80179;SDS011;69505;52.134;5.438;2023-07-13T00:24:36;7.32;;;1.48;;
80179;SDS011;69505;52.134;5.438;2023-07-13T00:27:10;6.88;;;1.25;;
80179;SDS011;69505;52.134;5.438;2023-07-13T00:29:38;6.82;;;1.08;;
80179;SDS011;69505;52.134;5.438;2023-07-13T00:32:05;4.70;;;1.20;;
80179;SDS011;69505;52.134;5.438;2023-07-13T00:34:32;8.50;;;1.30;;
80179;SDS011;69505;52.134;5.438;2023-07-13T00:36:59;6.28;;;1.20;;
80179;SDS011;69505;52.134;5.438;2023-07-13T00:39:26;6.30;;;1.25;;
80179;SDS011;69505;52.134;5.438;2023-07-13T00:41:53;4.60;;;1.00;;
80179;SDS011;69505;52.134;5.438;2023-07-13T00:44:20;5.35;;;1.33;;
80179;SDS011;69505;52.134;5.438;2023-07-13T00:46:49;10.77;;;1.10;;
80179;SDS011;69505;52.134;5.438;2023-07-13T00:49:17;6.78;;;1.27;;
80179;SDS011;69505;52.134;5.438;2023-07-13T00:51:48;6.85;;;1.20;;
80179;SDS011;69505;52.134;5.438;2023-07-13T00:54:18;5.97;;;0.93;;
80179;SDS011;69505;52.134;5.438;2023-07-13T00:56:51;6.07;;;1.23;;
80179;SDS011;69505;52.134;5.438;2023-07-13T00:59:19;4.45;;;0.90;;
80179;SDS011;69505;52.134;5.438;2023-07-13T01:01:48;5.63;;;1.10;;
80179;SDS011;69505;52.134;5.438;2023-07-13T01:04:16;3.90;;;1.00;;
80179;SDS011;69505;52.134;5.438;2023-07-13T01:06:43;7.15;;;1.25;;
80179;SDS011;69505;52.134;5.438;2023-07-13T01:09:10;6.57;;;1.63;;
80179;SDS011;69505;52.134;5.438;2023-07-13T01:11:38;7.78;;;1.20;;
80179;SDS011;69505;52.134;5.438;2023-07-13T01:14:05;5.05;;;1.15;;
80179;SDS011;69505;52.134;5.438;2023-07-13T01:16:32;4.68;;;1.00;;
80179;SDS011;69505;52.134;5.438;2023-07-13T01:19:03;6.43;;;1.30;;
80179;SDS011;69505;52.134;5.438;2023-07-13T01:21:40;5.90;;;1.20;;
80179;SDS011;69505;52.134;5.438;2023-07-13T01:26:35;4.10;;;0.93;;
80179;SDS011;69505;52.134;5.438;2023-07-13T01:29:02;6.45;;;1.27;;
80179;SDS011;69505;52.134;5.438;2023-07-13T01:31:28;7.40;;;1.50;;
80179;SDS011;69505;52.134;5.438;2023-07-13T01:33:55;4.57;;;1.17;;
80179;SDS011;69505;52.134;5.438;2023-07-13T01:36:23;6.60;;;1.40;;
80179;SDS011;69505;52.134;5.438;2023-07-13T01:38:50;4.85;;;1.33;;
80179;SDS011;69505;52.134;5.438;2023-07-13T01:41:17;5.88;;;1.10;;
80179;SDS011;69505;52.134;5.438;2023-07-13T01:43:43;6.38;;;1.50;;
80179;SDS011;69505;52.134;5.438;2023-07-13T01:46:10;11.02;;;1.30;;
80179;SDS011;69505;52.134;5.438;2023-07-13T01:48:49;5.10;;;0.98;;
80179;SDS011;69505;52.134;5.438;2023-07-13T01:51:15;4.95;;;1.13;;
80179;SDS011;69505;52.134;5.438;2023-07-13T01:53:43;6.78;;;1.20;;
80179;SDS011;69505;52.134;5.438;2023-07-13T01:56:10;8.50;;;1.27;;
80179;SDS011;69505;52.134;5.438;2023-07-13T01:58:36;3.60;;;1.10;;
80179;SDS011;69505;52.134;5.438;2023-07-13T02:01:03;8.10;;;1.20;;
80179;SDS011;69505;52.134;5.438;2023-07-13T02:03:30;6.50;;;1.08;;
80179;SDS011;69505;52.134;5.438;2023-07-13T02:05:57;3.78;;;1.15;;
80179;SDS011;69505;52.134;5.438;2023-07-13T02:08:23;6.60;;;1.10;;
80179;SDS011;69505;52.134;5.438;2023-07-13T02:10:50;6.78;;;1.20;;
80179;SDS011;69505;52.134;5.438;2023-07-13T02:13:17;5.68;;;1.33;;
80179;SDS011;69505;52.134;5.438;2023-07-13T02:15:43;6.65;;;1.23;;
80179;SDS011;69505;52.134;5.438;2023-07-13T02:18:10;4.15;;;1.65;;
80179;SDS011;69505;52.134;5.438;2023-07-13T02:20:36;6.30;;;1.10;;
80179;SDS011;69505;52.134;5.438;2023-07-13T02:23:03;5.80;;;1.42;;
80179;SDS011;69505;52.134;5.438;2023-07-13T02:25:32;6.65;;;1.73;;
80179;SDS011;69505;52.134;5.438;2023-07-13T02:27:59;6.75;;;1.30;;
80179;SDS011;69505;52.134;5.438;2023-07-13T02:30:26;9.05;;;1.75;;
80179;SDS011;69505;52.134;5.438;2023-07-13T02:32:56;4.85;;;1.35;;
80179;SDS011;69505;52.134;5.438;2023-07-13T02:35:23;4.85;;;1.17;;
80179;SDS011;69505;52.134;5.438;2023-07-13T02:37:50;6.25;;;1.60;;
80179;SDS011;69505;52.134;5.438;2023-07-13T02:40:16;5.45;;;1.33;;
80179;SDS011;69505;52.134;5.438;2023-07-13T02:42:43;4.60;;;1.27;;
80179;SDS011;69505;52.134;5.438;2023-07-13T02:45:10;8.50;;;1.58;;
80179;SDS011;69505;52.134;5.438;2023-07-13T02:47:36;9.60;;;1.35;;
80179;SDS011;69505;52.134;5.438;2023-07-13T02:50:03;9.80;;;1.48;;
80179;SDS011;69505;52.134;5.438;2023-07-13T02:52:30;6.22;;;1.58;;
80179;SDS011;69505;52.134;5.438;2023-07-13T02:54:57;7.53;;;1.70;;
80179;SDS011;69505;52.134;5.438;2023-07-13T02:57:23;4.15;;;1.33;;
80179;SDS011;69505;52.134;5.438;2023-07-13T02:59:50;4.60;;;1.40;;
80179;SDS011;69505;52.134;5.438;2023-07-13T03:02:17;9.02;;;1.65;;
80179;SDS011;69505;52.134;5.438;2023-07-13T03:04:43;5.95;;;1.45;;
80179;SDS011;69505;52.134;5.438;2023-07-13T03:07:10;5.45;;;1.27;;
80179;SDS011;69505;52.134;5.438;2023-07-13T03:09:37;5.75;;;1.40;;
80179;SDS011;69505;52.134;5.438;2023-07-13T03:12:04;4.90;;;1.33;;
80179;SDS011;69505;52.134;5.438;2023-07-13T03:14:30;7.72;;;1.60;;
80179;SDS011;69505;52.134;5.438;2023-07-13T03:16:57;6.70;;;1.63;;
80179;SDS011;69505;52.134;5.438;2023-07-13T03:19:24;4.68;;;1.23;;
80179;SDS011;69505;52.134;5.438;2023-07-13T03:21:51;5.07;;;1.55;;
80179;SDS011;69505;52.134;5.438;2023-07-13T03:24:17;7.78;;;1.77;;
80179;SDS011;69505;52.134;5.438;2023-07-13T03:26:44;5.13;;;1.50;;
80179;SDS011;69505;52.134;5.438;2023-07-13T03:29:11;6.15;;;1.50;;
80179;SDS011;69505;52.134;5.438;2023-07-13T03:31:37;6.78;;;1.73;;
80179;SDS011;69505;52.134;5.438;2023-07-13T03:34:04;9.13;;;1.95;;
80179;SDS011;69505;52.134;5.438;2023-07-13T03:36:31;5.13;;;1.63;;
80179;SDS011;69505;52.134;5.438;2023-07-13T03:39:00;9.70;;;2.00;;
80179;SDS011;69505;52.134;5.438;2023-07-13T03:41:29;7.07;;;1.73;;
80179;SDS011;69505;52.134;5.438;2023-07-13T03:43:57;7.25;;;2.03;;
80179;SDS011;69505;52.134;5.438;2023-07-13T03:46:24;9.02;;;2.00;;
80179;SDS011;69505;52.134;5.438;2023-07-13T03:48:51;4.55;;;1.80;;
80179;SDS011;69505;52.134;5.438;2023-07-13T03:51:18;5.93;;;1.88;;
80179;SDS011;69505;52.134;5.438;2023-07-13T03:53:45;5.10;;;1.50;;
80179;SDS011;69505;52.134;5.438;2023-07-13T03:56:14;5.47;;;1.60;;
80179;SDS011;69505;52.134;5.438;2023-07-13T03:58:43;10.27;;;1.73;;
80179;SDS011;69505;52.134;5.438;2023-07-13T04:01:12;7.00;;;1.85;;
80179;SDS011;69505;52.134;5.438;2023-07-13T04:03:40;4.60;;;1.77;;
80179;SDS011;69505;52.134;5.438;2023-07-13T04:06:07;8.68;;;1.83;;
80179;SDS011;69505;52.134;5.438;2023-07-13T04:08:41;11.20;;;2.10;;
80179;SDS011;69505;52.134;5.438;2023-07-13T04:11:08;4.75;;;1.65;;
80179;SDS011;69505;52.134;5.438;2023-07-13T04:13:35;7.15;;;2.28;;
80179;SDS011;69505;52.134;5.438;2023-07-13T04:16:02;5.25;;;1.80;;
80179;SDS011;69505;52.134;5.438;2023-07-13T04:18:28;11.23;;;1.95;;
80179;SDS011;69505;52.134;5.438;2023-07-13T04:20:55;7.50;;;1.90;;
80179;SDS011;69505;52.134;5.438;2023-07-13T04:23:23;9.65;;;2.40;;
80179;SDS011;69505;52.134;5.438;2023-07-13T04:25:51;8.13;;;2.15;;
80179;SDS011;69505;52.134;5.438;2023-07-13T04:28:23;7.32;;;1.98;;
80179;SDS011;69505;52.134;5.438;2023-07-13T04:30:51;8.10;;;2.25;;
80179;SDS011;69505;52.134;5.438;2023-07-13T04:33:18;8.68;;;2.10;;
80179;SDS011;69505;52.134;5.438;2023-07-13T04:35:52;9.38;;;2.30;;
80179;SDS011;69505;52.134;5.438;2023-07-13T04:38:29;8.10;;;2.17;;
80179;SDS011;69505;52.134;5.438;2023-07-13T04:40:59;16.70;;;2.25;;
80179;SDS011;69505;52.134;5.438;2023-07-13T04:43:27;9.73;;;2.13;;
80179;SDS011;69505;52.134;5.438;2023-07-13T04:45:55;7.22;;;2.10;;
80179;SDS011;69505;52.134;5.438;2023-07-13T04:48:23;10.52;;;2.40;;
80179;SDS011;69505;52.134;5.438;2023-07-13T04:50:56;8.68;;;2.17;;
80179;SDS011;69505;52.134;5.438;2023-07-13T04:53:24;10.20;;;2.47;;
80179;SDS011;69505;52.134;5.438;2023-07-13T04:55:52;8.07;;;2.45;;
80179;SDS011;69505;52.134;5.438;2023-07-13T04:58:19;8.32;;;2.28;;
80179;SDS011;69505;52.134;5.438;2023-07-13T05:00:47;12.88;;;2.75;;
80179;SDS011;69505;52.134;5.438;2023-07-13T05:03:14;11.02;;;2.35;;
80179;SDS011;69505;52.134;5.438;2023-07-13T05:05:41;12.57;;;2.50;;
80179;SDS011;69505;52.134;5.438;2023-07-13T05:08:08;8.73;;;2.45;;
80179;SDS011;69505;52.134;5.438;2023-07-13T05:10:35;11.48;;;2.85;;
80179;SDS011;69505;52.134;5.438;2023-07-13T05:13:02;9.52;;;2.58;;
80179;SDS011;69505;52.134;5.438;2023-07-13T05:15:29;11.18;;;2.58;;
80179;SDS011;69505;52.134;5.438;2023-07-13T05:17:55;10.25;;;2.72;;
80179;SDS011;69505;52.134;5.438;2023-07-13T05:20:22;7.25;;;2.70;;
80179;SDS011;69505;52.134;5.438;2023-07-13T05:22:49;9.70;;;2.85;;
80179;SDS011;69505;52.134;5.438;2023-07-13T05:25:17;10.77;;;2.60;;
80179;SDS011;69505;52.134;5.438;2023-07-13T05:27:44;10.82;;;2.70;;
80179;SDS011;69505;52.134;5.438;2023-07-13T05:30:12;13.80;;;3.17;;
80179;SDS011;69505;52.134;5.438;2023-07-13T05:32:39;10.07;;;2.80;;
80179;SDS011;69505;52.134;5.438;2023-07-13T05:35:06;8.68;;;2.65;;
80179;SDS011;69505;52.134;5.438;2023-07-13T05:37:33;10.68;;;2.88;;
80179;SDS011;69505;52.134;5.438;2023-07-13T05:40:00;15.15;;;3.10;;
80179;SDS011;69505;52.134;5.438;2023-07-13T05:42:26;14.30;;;3.40;;
80179;SDS011;69505;52.134;5.438;2023-07-13T05:44:53;11.48;;;3.33;;
80179;SDS011;69505;52.134;5.438;2023-07-13T05:47:19;13.02;;;3.83;;
80179;SDS011;69505;52.134;5.438;2023-07-13T05:49:46;13.32;;;3.70;;
80179;SDS011;69505;52.134;5.438;2023-07-13T05:52:13;9.00;;;4.15;;
80179;SDS011;69505;52.134;5.438;2023-07-13T05:54:39;13.45;;;4.20;;
80179;SDS011;69505;52.134;5.438;2023-07-13T05:57:06;14.25;;;4.60;;
80179;SDS011;69505;52.134;5.438;2023-07-13T05:59:32;11.18;;;4.20;;
80179;SDS011;69505;52.134;5.438;2023-07-13T06:01:59;17.38;;;4.53;;
80179;SDS011;69505;52.134;5.438;2023-07-13T06:04:26;14.38;;;5.00;;
80179;SDS011;69505;52.134;5.438;2023-07-13T06:06:52;12.90;;;4.10;;
80179;SDS011;69505;52.134;5.438;2023-07-13T06:09:19;14.15;;;4.80;;
80179;SDS011;69505;52.134;5.438;2023-07-13T06:11:46;13.85;;;4.55;;
80179;SDS011;69505;52.134;5.438;2023-07-13T06:14:12;18.17;;;4.88;;
80179;SDS011;69505;52.134;5.438;2023-07-13T06:16:39;12.13;;;4.47;;
80179;SDS011;69505;52.134;5.438;2023-07-13T06:19:06;17.40;;;4.82;;
80179;SDS011;69505;52.134;5.438;2023-07-13T06:21:33;14.73;;;4.72;;
80179;SDS011;69505;52.134;5.438;2023-07-13T06:23:59;11.90;;;4.85;;
80179;SDS011;69505;52.134;5.438;2023-07-13T06:26:26;15.68;;;5.03;;
80179;SDS011;69505;52.134;5.438;2023-07-13T06:28:53;14.02;;;4.78;;
80179;SDS011;69505;52.134;5.438;2023-07-13T06:31:19;12.75;;;4.35;;
80179;SDS011;69505;52.134;5.438;2023-07-13T06:33:46;13.43;;;4.82;;
80179;SDS011;69505;52.134;5.438;2023-07-13T06:36:13;16.48;;;5.65;;
80179;SDS011;69505;52.134;5.438;2023-07-13T06:38:39;13.30;;;4.80;;
80179;SDS011;69505;52.134;5.438;2023-07-13T06:41:06;12.75;;;4.60;;
80179;SDS011;69505;52.134;5.438;2023-07-13T06:43:34;16.48;;;5.32;;
80179;SDS011;69505;52.134;5.438;2023-07-13T06:46:00;15.57;;;5.25;;
80179;SDS011;69505;52.134;5.438;2023-07-13T06:48:28;11.48;;;4.63;;
80179;SDS011;69505;52.134;5.438;2023-07-13T06:50:55;16.23;;;5.50;;
80179;SDS011;69505;52.134;5.438;2023-07-13T06:53:22;13.80;;;5.28;;
80179;SDS011;69505;52.134;5.438;2023-07-13T06:55:50;13.23;;;4.28;;
80179;SDS011;69505;52.134;5.438;2023-07-13T06:58:18;13.07;;;5.10;;
80179;SDS011;69505;52.134;5.438;2023-07-13T07:00:45;11.43;;;4.40;;
80179;SDS011;69505;52.134;5.438;2023-07-13T07:03:13;14.13;;;5.15;;
80179;SDS011;69505;52.134;5.438;2023-07-13T07:05:40;10.95;;;4.88;;
80179;SDS011;69505;52.134;5.438;2023-07-13T07:08:06;10.98;;;4.63;;
80179;SDS011;69505;52.134;5.438;2023-07-13T07:10:33;13.25;;;4.88;;
80179;SDS011;69505;52.134;5.438;2023-07-13T07:13:00;13.98;;;5.63;;
80179;SDS011;69505;52.134;5.438;2023-07-13T07:15:26;10.55;;;4.80;;
80179;SDS011;69505;52.134;5.438;2023-07-13T07:17:53;16.05;;;5.20;;
80179;SDS011;69505;52.134;5.438;2023-07-13T07:20:20;11.15;;;4.93;;
80179;SDS011;69505;52.134;5.438;2023-07-13T07:22:47;12.95;;;5.30;;
80179;SDS011;69505;52.134;5.438;2023-07-13T07:25:14;18.52;;;5.45;;
80179;SDS011;69505;52.134;5.438;2023-07-13T07:27:41;15.02;;;4.75;;
80179;SDS011;69505;52.134;5.438;2023-07-13T07:30:11;15.00;;;5.63;;
80179;SDS011;69505;52.134;5.438;2023-07-13T07:32:41;15.73;;;5.35;;
80179;SDS011;69505;52.134;5.438;2023-07-13T07:35:22;16.45;;;5.25;;
80179;SDS011;69505;52.134;5.438;2023-07-13T07:37:48;14.57;;;5.32;;
80179;SDS011;69505;52.134;5.438;2023-07-13T07:40:16;14.20;;;5.70;;
80179;SDS011;69505;52.134;5.438;2023-07-13T07:42:46;15.40;;;5.85;;
80179;SDS011;69505;52.134;5.438;2023-07-13T07:45:13;15.18;;;5.40;;
80179;SDS011;69505;52.134;5.438;2023-07-13T07:47:40;12.98;;;5.47;;
80179;SDS011;69505;52.134;5.438;2023-07-13T07:50:07;11.05;;;5.32;;
80179;SDS011;69505;52.134;5.438;2023-07-13T07:52:35;12.48;;;5.70;;
80179;SDS011;69505;52.134;5.438;2023-07-13T07:55:01;14.35;;;5.82;;
80179;SDS011;69505;52.134;5.438;2023-07-13T07:57:33;10.80;;;5.75;;
80179;SDS011;69505;52.134;5.438;2023-07-13T08:00:03;13.40;;;5.78;;
80179;SDS011;69505;52.134;5.438;2023-07-13T08:02:33;15.27;;;5.75;;
80179;SDS011;69505;52.134;5.438;2023-07-13T08:05:03;12.35;;;5.10;;
80179;SDS011;69505;52.134;5.438;2023-07-13T08:07:33;11.68;;;4.75;;
80179;SDS011;69505;52.134;5.438;2023-07-13T08:09:59;15.35;;;4.97;;
80179;SDS011;69505;52.134;5.438;2023-07-13T08:12:26;11.20;;;4.60;;
80179;SDS011;69505;52.134;5.438;2023-07-13T08:14:55;12.68;;;4.43;;
80179;SDS011;69505;52.134;5.438;2023-07-13T08:17:27;11.82;;;4.13;;
80179;SDS011;69505;52.134;5.438;2023-07-13T08:19:53;13.30;;;4.22;;
80179;SDS011;69505;52.134;5.438;2023-07-13T08:22:20;10.23;;;4.53;;
80179;SDS011;69505;52.134;5.438;2023-07-13T08:24:46;13.15;;;3.75;;
80179;SDS011;69505;52.134;5.438;2023-07-13T08:27:22;11.73;;;3.60;;
80179;SDS011;69505;52.134;5.438;2023-07-13T08:29:50;12.93;;;4.15;;
80179;SDS011;69505;52.134;5.438;2023-07-13T08:32:17;12.75;;;3.83;;
80179;SDS011;69505;52.134;5.438;2023-07-13T08:34:45;10.02;;;3.67;;
80179;SDS011;69505;52.134;5.438;2023-07-13T08:37:12;9.00;;;4.10;;
80179;SDS011;69505;52.134;5.438;2023-07-13T08:39:38;9.32;;;3.05;;
80179;SDS011;69505;52.134;5.438;2023-07-13T08:42:07;10.98;;;3.45;;
80179;SDS011;69505;52.134;5.438;2023-07-13T08:47:26;7.63;;;2.92;;
80179;SDS011;69505;52.134;5.438;2023-07-13T08:49:56;9.05;;;2.38;;
80179;SDS011;69505;52.134;5.438;2023-07-13T08:52:32;9.35;;;2.53;;
80179;SDS011;69505;52.134;5.438;2023-07-13T08:55:11;6.28;;;1.67;;
80179;SDS011;69505;52.134;5.438;2023-07-13T08:57:38;6.22;;;1.60;;
80179;SDS011;69505;52.134;5.438;2023-07-13T09:00:11;5.80;;;1.45;;
80179;SDS011;69505;52.134;5.438;2023-07-13T09:02:42;5.32;;;1.40;;
80179;SDS011;69505;52.134;5.438;2023-07-13T09:05:33;5.03;;;1.25;;
80179;SDS011;69505;52.134;5.438;2023-07-13T09:15:43;5.32;;;1.70;;
80179;SDS011;69505;52.134;5.438;2023-07-13T09:20:52;6.93;;;2.15;;
80179;SDS011;69505;52.134;5.438;2023-07-13T09:23:24;4.15;;;1.42;;
80179;SDS011;69505;52.134;5.438;2023-07-13T09:26:11;7.32;;;2.22;;
80179;SDS011;69505;52.134;5.438;2023-07-13T09:28:43;3.78;;;1.60;;
80179;SDS011;69505;52.134;5.438;2023-07-13T09:31:19;6.05;;;2.00;;
80179;SDS011;69505;52.134;5.438;2023-07-13T09:33:50;6.38;;;1.70;;
80179;SDS011;69505;52.134;5.438;2023-07-13T09:38:45;5.72;;;1.77;;
80179;SDS011;69505;52.134;5.438;2023-07-13T09:41:19;6.50;;;1.60;;
80179;SDS011;69505;52.134;5.438;2023-07-13T09:44:09;4.82;;;1.52;;
80179;SDS011;69505;52.134;5.438;2023-07-13T09:46:39;5.82;;;1.70;;
80179;SDS011;69505;52.134;5.438;2023-07-13T09:49:10;4.30;;;1.38;;
80179;SDS011;69505;52.134;5.438;2023-07-13T09:51:41;5.40;;;1.55;;
80179;SDS011;69505;52.134;5.438;2023-07-13T09:54:17;6.05;;;1.45;;
80179;SDS011;69505;52.134;5.438;2023-07-13T09:56:45;4.03;;;1.30;;
80179;SDS011;69505;52.134;5.438;2023-07-13T09:59:21;6.50;;;1.70;;
80179;SDS011;69505;52.134;5.438;2023-07-13T10:01:50;6.53;;;1.73;;
80179;SDS011;69505;52.134;5.438;2023-07-13T10:04:17;4.32;;;1.40;;
80179;SDS011;69505;52.134;5.438;2023-07-13T10:06:45;4.35;;;1.42;;
80179;SDS011;69505;52.134;5.438;2023-07-13T10:09:16;4.47;;;1.38;;
80179;SDS011;69505;52.134;5.438;2023-07-13T10:11:43;4.07;;;1.70;;
80179;SDS011;69505;52.134;5.438;2023-07-13T10:14:12;5.28;;;1.90;;
80179;SDS011;69505;52.134;5.438;2023-07-13T10:16:41;6.07;;;1.33;;
80179;SDS011;69505;52.134;5.438;2023-07-13T10:19:16;3.60;;;1.60;;
80179;SDS011;69505;52.134;5.438;2023-07-13T10:24:23;5.53;;;1.60;;
80179;SDS011;69505;52.134;5.438;2023-07-13T10:29:38;4.07;;;1.83;;
80179;SDS011;69505;52.134;5.438;2023-07-13T10:32:10;4.47;;;2.15;;
80179;SDS011;69505;52.134;5.438;2023-07-13T10:34:40;6.65;;;1.90;;
80179;SDS011;69505;52.134;5.438;2023-07-13T10:37:21;5.78;;;2.00;;
80179;SDS011;69505;52.134;5.438;2023-07-13T10:39:51;4.05;;;1.65;;
80179;SDS011;69505;52.134;5.438;2023-07-13T10:42:32;5.47;;;1.98;;
80179;SDS011;69505;52.134;5.438;2023-07-13T10:45:11;5.40;;;2.15;;
80179;SDS011;69505;52.134;5.438;2023-07-13T10:47:41;8.27;;;1.92;;
80179;SDS011;69505;52.134;5.438;2023-07-13T10:50:14;4.63;;;1.80;;
80179;SDS011;69505;52.134;5.438;2023-07-13T10:52:48;3.53;;;1.88;;
80179;SDS011;69505;52.134;5.438;2023-07-13T10:58:02;6.88;;;1.77;;
80179;SDS011;69505;52.134;5.438;2023-07-13T11:00:46;4.00;;;1.67;;
80179;SDS011;69505;52.134;5.438;2023-07-13T11:06:53;4.93;;;1.67;;
80179;SDS011;69505;52.134;5.438;2023-07-13T11:09:18;4.80;;;1.70;;
80179;SDS011;69505;52.134;5.438;2023-07-13T11:11:55;3.47;;;1.48;;
80179;SDS011;69505;52.134;5.438;2023-07-13T11:16:57;5.93;;;1.50;;
80179;SDS011;69505;52.134;5.438;2023-07-13T11:19:25;4.00;;;1.60;;
80179;SDS011;69505;52.134;5.438;2023-07-13T11:24:56;3.55;;;1.58;;
80179;SDS011;69505;52.134;5.438;2023-07-13T11:27:33;5.03;;;1.58;;
80179;SDS011;69505;52.134;5.438;2023-07-13T11:30:20;4.63;;;1.85;;
80179;SDS011;69505;52.134;5.438;2023-07-13T11:38:36;6.45;;;1.65;;
80179;SDS011;69505;52.134;5.438;2023-07-13T11:41:07;9.40;;;1.80;;
80179;SDS011;69505;52.134;5.438;2023-07-13T11:43:54;4.03;;;1.63;;
80179;SDS011;69505;52.134;5.438;2023-07-13T11:46:26;3.30;;;1.65;;
80179;SDS011;69505;52.134;5.438;2023-07-13T11:48:54;5.75;;;2.08;;
80179;SDS011;69505;52.134;5.438;2023-07-13T11:51:22;5.35;;;1.67;;
80179;SDS011;69505;52.134;5.438;2023-07-13T11:53:59;5.47;;;1.63;;
80179;SDS011;69505;52.134;5.438;2023-07-13T11:56:29;4.65;;;1.48;;
80179;SDS011;69505;52.134;5.438;2023-07-13T11:58:59;6.00;;;1.92;;
80179;SDS011;69505;52.134;5.438;2023-07-13T12:01:32;5.88;;;1.80;;
80179;SDS011;69505;52.134;5.438;2023-07-13T12:04:01;5.38;;;1.80;;
80179;SDS011;69505;52.134;5.438;2023-07-13T12:06:33;5.25;;;1.65;;
80179;SDS011;69505;52.134;5.438;2023-07-13T12:09:11;6.88;;;1.83;;
80179;SDS011;69505;52.134;5.438;2023-07-13T12:14:13;8.02;;;1.98;;
80179;SDS011;69505;52.134;5.438;2023-07-13T12:16:42;4.90;;;1.92;;
80179;SDS011;69505;52.134;5.438;2023-07-13T12:19:28;4.82;;;1.90;;
80179;SDS011;69505;52.134;5.438;2023-07-13T12:21:56;5.90;;;2.20;;
80179;SDS011;69505;52.134;5.438;2023-07-13T12:24:25;3.97;;;1.90;;
80179;SDS011;69505;52.134;5.438;2023-07-13T12:29:20;5.82;;;1.77;;
80179;SDS011;69505;52.134;5.438;2023-07-13T12:31:48;5.55;;;2.05;;
80179;SDS011;69505;52.134;5.438;2023-07-13T12:34:17;5.88;;;2.13;;
80179;SDS011;69505;52.134;5.438;2023-07-13T12:39:22;6.35;;;2.40;;
80179;SDS011;69505;52.134;5.438;2023-07-13T12:41:50;6.03;;;2.30;;
80179;SDS011;69505;52.134;5.438;2023-07-13T12:44:26;6.88;;;2.05;;
80179;SDS011;69505;52.134;5.438;2023-07-13T12:46:59;5.68;;;2.05;;
80179;SDS011;69505;52.134;5.438;2023-07-13T12:49:42;4.03;;;1.90;;
80179;SDS011;69505;52.134;5.438;2023-07-13T12:52:15;4.28;;;1.63;;
80179;SDS011;69505;52.134;5.438;2023-07-13T12:54:58;4.38;;;1.50;;
80179;SDS011;69505;52.134;5.438;2023-07-13T12:57:32;6.82;;;1.70;;
80179;SDS011;69505;52.134;5.438;2023-07-13T13:00:04;6.35;;;1.85;;
80179;SDS011;69505;52.134;5.438;2023-07-13T13:02:45;4.57;;;1.55;;
80179;SDS011;69505;52.134;5.438;2023-07-13T13:05:17;5.93;;;1.52;;
80179;SDS011;69505;52.134;5.438;2023-07-13T13:07:44;4.45;;;1.60;;
80179;SDS011;69505;52.134;5.438;2023-07-13T13:10:13;6.85;;;1.88;;
80179;SDS011;69505;52.134;5.438;2023-07-13T13:12:40;6.90;;;1.80;;
80179;SDS011;69505;52.134;5.438;2023-07-13T13:15:11;8.15;;;2.00;;
80179;SDS011;69505;52.134;5.438;2023-07-13T13:17:38;5.82;;;1.80;;
80179;SDS011;69505;52.134;5.438;2023-07-13T13:20:15;6.65;;;2.00;;
80179;SDS011;69505;52.134;5.438;2023-07-13T13:22:43;5.65;;;1.65;;
80179;SDS011;69505;52.134;5.438;2023-07-13T13:25:11;6.45;;;1.85;;
80179;SDS011;69505;52.134;5.438;2023-07-13T13:27:39;7.90;;;1.77;;
80179;SDS011;69505;52.134;5.438;2023-07-13T13:30:10;4.75;;;1.60;;
80179;SDS011;69505;52.134;5.438;2023-07-13T13:32:46;3.67;;;1.50;;
80179;SDS011;69505;52.134;5.438;2023-07-13T13:35:14;4.00;;;1.33;;
80179;SDS011;69505;52.134;5.438;2023-07-13T13:37:42;4.10;;;1.52;;
80179;SDS011;69505;52.134;5.438;2023-07-13T13:40:21;7.35;;;1.60;;
80179;SDS011;69505;52.134;5.438;2023-07-13T13:42:49;5.40;;;1.55;;
80179;SDS011;69505;52.134;5.438;2023-07-13T13:45:18;4.57;;;1.90;;
80179;SDS011;69505;52.134;5.438;2023-07-13T13:47:46;6.05;;;2.10;;
80179;SDS011;69505;52.134;5.438;2023-07-13T13:50:15;4.30;;;2.08;;
80179;SDS011;69505;52.134;5.438;2023-07-13T13:52:43;4.13;;;1.65;;
80179;SDS011;69505;52.134;5.438;2023-07-13T13:55:14;3.90;;;1.80;;
80179;SDS011;69505;52.134;5.438;2023-07-13T13:57:46;4.32;;;1.67;;
80179;SDS011;69505;52.134;5.438;2023-07-13T14:00:13;3.97;;;1.48;;
80179;SDS011;69505;52.134;5.438;2023-07-13T14:02:42;5.15;;;1.80;;
80179;SDS011;69505;52.134;5.438;2023-07-13T14:05:14;4.15;;;1.35;;
80179;SDS011;69505;52.134;5.438;2023-07-13T14:07:46;3.33;;;1.50;;
80179;SDS011;69505;52.134;5.438;2023-07-13T14:10:14;7.10;;;2.13;;
80179;SDS011;69505;52.134;5.438;2023-07-13T14:12:42;3.80;;;1.83;;
80179;SDS011;69505;52.134;5.438;2023-07-13T14:15:20;5.63;;;1.65;;
80179;SDS011;69505;52.134;5.438;2023-07-13T14:17:49;4.13;;;1.65;;
80179;SDS011;69505;52.134;5.438;2023-07-13T14:20:19;4.90;;;1.73;;
80179;SDS011;69505;52.134;5.438;2023-07-13T14:22:48;6.20;;;1.55;;
80179;SDS011;69505;52.134;5.438;2023-07-13T14:25:16;3.85;;;1.80;;
80179;SDS011;69505;52.134;5.438;2023-07-13T14:27:44;4.55;;;1.55;;
80179;SDS011;69505;52.134;5.438;2023-07-13T14:30:20;5.75;;;1.83;;
80179;SDS011;69505;52.134;5.438;2023-07-13T14:32:48;3.22;;;1.63;;
80179;SDS011;69505;52.134;5.438;2023-07-13T14:35:16;6.43;;;1.42;;
80179;SDS011;69505;52.134;5.438;2023-07-13T14:37:45;3.72;;;1.63;;
80179;SDS011;69505;52.134;5.438;2023-07-13T14:40:17;5.88;;;1.63;;
80179;SDS011;69505;52.134;5.438;2023-07-13T14:42:47;3.15;;;1.33;;
80179;SDS011;69505;52.134;5.438;2023-07-13T14:45:17;6.95;;;1.60;;
80179;SDS011;69505;52.134;5.438;2023-07-13T14:47:46;4.80;;;1.70;;
80179;SDS011;69505;52.134;5.438;2023-07-13T14:50:14;4.68;;;1.50;;
80179;SDS011;69505;52.134;5.438;2023-07-13T14:52:43;2.78;;;1.52;;
80179;SDS011;69505;52.134;5.438;2023-07-13T14:55:15;3.42;;;1.42;;
80179;SDS011;69505;52.134;5.438;2023-07-13T14:57:45;5.07;;;1.60;;
80179;SDS011;69505;52.134;5.438;2023-07-13T15:02:43;5.53;;;1.92;;
80179;SDS011;69505;52.134;5.438;2023-07-13T15:05:14;5.65;;;1.73;;
80179;SDS011;69505;52.134;5.438;2023-07-13T15:07:43;5.75;;;1.92;;
80179;SDS011;69505;52.134;5.438;2023-07-13T15:10:17;3.97;;;1.23;;
80179;SDS011;69505;52.134;5.438;2023-07-13T15:12:45;3.08;;;1.33;;
80179;SDS011;69505;52.134;5.438;2023-07-13T15:15:13;4.90;;;1.65;;
80179;SDS011;69505;52.134;5.438;2023-07-13T15:17:41;5.75;;;1.45;;
80179;SDS011;69505;52.134;5.438;2023-07-13T15:20:19;4.65;;;1.65;;
80179;SDS011;69505;52.134;5.438;2023-07-13T15:22:52;3.85;;;1.42;;
80179;SDS011;69505;52.134;5.438;2023-07-13T15:25:19;4.63;;;1.58;;
80179;SDS011;69505;52.134;5.438;2023-07-13T15:27:48;5.45;;;1.38;;
80179;SDS011;69505;52.134;5.438;2023-07-13T15:30:15;4.20;;;1.33;;
80179;SDS011;69505;52.134;5.438;2023-07-13T15:32:45;3.78;;;1.48;;
80179;SDS011;69505;52.134;5.438;2023-07-13T15:35:13;3.03;;;1.35;;
80179;SDS011;69505;52.134;5.438;2023-07-13T15:37:44;4.50;;;1.33;;
80179;SDS011;69505;52.134;5.438;2023-07-13T15:40:11;4.55;;;1.42;;
80179;SDS011;69505;52.134;5.438;2023-07-13T15:42:40;5.50;;;1.45;;
80179;SDS011;69505;52.134;5.438;2023-07-13T15:47:49;3.92;;;1.40;;
80179;SDS011;69505;52.134;5.438;2023-07-13T15:50:17;3.83;;;1.42;;